Lees Summit, Missouri
Current Conditions -  °F | °C
As of 5:53 PM on Tuesday 25 Nov 2014 (Local Time) from KLXT Reporting Station
Clear Clear  
Wind Chill: 32°   Ceiling: Unl
Heat Index: 37°   Visibility: 10mi
Dew Point: 17°   Wind: 6mph
Humidity: 44%   Direction: 160°SSE
Pressure: 30.09"   Gusts: NA
Location:  38.908°N, 94.2968°W
Report Text: KLXT 252353Z AUTO 16005KT 10SM CLR 03/M08 A3009 RMK AO2 SLP200 T00281083 10056 20022 56011 TSNO
Loading
Personal Weather Stations






























Interactive Weather Map New forecast layout! Learn more

10-Day Weather Forecast

Advertisements
Track Severe Weather on mobile